createdAt,value
2023-03-25T00:00:18.095Z,86712.03
2023-03-25T00:02:48.135Z,86710.09
2023-03-25T00:05:18.575Z,86715.03
2023-03-25T00:07:50.420Z,86715.03
2023-03-25T00:10:19.350Z,86714.25
2023-03-25T00:12:47.020Z,86710.50
2023-03-25T00:15:14.299Z,86713.91
2023-03-25T00:17:41.510Z,86718.44
2023-03-25T00:20:11.184Z,86719.16
2023-03-25T00:22:40.552Z,86719.97
2023-03-25T00:25:14.684Z,86718.09
2023-03-25T00:27:41.894Z,86721.09
2023-03-25T00:30:10.203Z,86714.72
2023-03-25T00:32:37.426Z,86705.34
2023-03-25T00:35:05.079Z,86710.59
2023-03-25T00:37:32.295Z,86708.34
2023-03-25T00:39:59.599Z,86711.72
2023-03-25T00:42:26.871Z,86704.97
2023-03-25T00:44:54.574Z,86711.41
2023-03-25T00:47:21.903Z,86704.25
2023-03-25T00:49:50.069Z,86702.75
2023-03-25T00:52:17.464Z,86698.59
2023-03-25T00:54:44.955Z,86702.38
2023-03-25T00:57:12.357Z,86704.63
2023-03-25T00:59:39.599Z,86688.06
2023-03-25T01:02:06.993Z,86689.56
2023-03-25T01:04:35.572Z,86683.91
2023-03-25T01:07:02.848Z,86680.88
2023-03-25T01:09:30.791Z,86688.03
2023-03-25T01:11:58.329Z,86674.88
2023-03-25T01:14:25.704Z,86671.88
2023-03-25T01:16:53.344Z,86667.72
2023-03-25T01:19:21.651Z,86663.59
2023-03-25T01:21:49.082Z,86665.50
2023-03-25T01:24:16.353Z,86668.94
2023-03-25T01:26:45.274Z,86659.53
2023-03-25T01:29:16.195Z,86664.44
2023-03-25T01:31:44.474Z,86664.44
2023-03-25T01:34:13.517Z,86670.44
2023-03-25T01:36:40.808Z,86667.06
2023-03-25T01:39:09.202Z,86660.66
2023-03-25T01:41:49.240Z,86656.53
2023-03-25T01:44:20.311Z,86657.28
2023-03-25T01:46:48.758Z,86664.78
2023-03-25T01:49:23.942Z,86656.53
2023-03-25T01:52:00.991Z,86652.38
2023-03-25T01:54:28.828Z,86652.75
2023-03-25T01:56:56.741Z,86648.63
2023-03-25T01:59:28.076Z,86639.97
2023-03-25T02:02:00.406Z,86637.72
2023-03-25T02:05:03.675Z,86626.81
2023-03-25T02:07:35.670Z,86628.72
2023-03-25T02:10:09.693Z,86631.34
2023-03-25T02:12:36.845Z,86626.81
2023-03-25T02:15:08.117Z,86626.81
2023-03-25T02:18:19.493Z,86625.72
2023-03-25T02:21:23.002Z,86615.56
2023-03-25T02:24:41.543Z,86613.72
2023-03-25T02:27:23.676Z,86620.56
2023-03-25T02:30:10.562Z,86611.16
2023-03-25T02:33:14.108Z,86618.66
2023-03-25T02:36:10.332Z,86610.78
2023-03-25T02:39:08.970Z,86607.00
2023-03-25T02:42:26.672Z,86607.75
2023-03-25T02:45:02.456Z,86613.03
2023-03-25T02:47:41.260Z,86604.00
2023-03-25T02:50:30.102Z,86610.03
2023-03-25T02:53:03.890Z,86608.53
2023-03-25T02:55:32.759Z,86605.16
2023-03-25T02:58:04.914Z,86596.13
2023-03-25T03:00:33.922Z,86596.88
2023-03-25T03:03:05.402Z,86595.75
2023-03-25T03:05:44.326Z,86587.88
2023-03-25T03:08:30.761Z,86586.00
2023-03-25T03:11:35.815Z,86577.72
2023-03-25T03:14:32.956Z,86572.47
2023-03-25T03:17:25.690Z,86570.63
2023-03-25T03:20:44.187Z,86580.38
2023-03-25T03:23:51.457Z,86577.41
2023-03-25T03:26:58.507Z,86578.19
2023-03-25T03:29:38.726Z,86575.97
2023-03-25T03:32:20.126Z,86561.34
2023-03-25T03:35:01.220Z,86559.88
2023-03-25T03:37:42.050Z,86561.72
2023-03-25T03:40:19.962Z,86564.00
2023-03-25T03:42:55.208Z,86556.50
2023-03-25T03:45:33.883Z,86549.38
2023-03-25T03:48:10.904Z,86555.03
2023-03-25T03:50:49.496Z,86564.44
2023-03-25T03:53:29.472Z,86568.19
2023-03-25T03:56:06.497Z,86569.00
2023-03-25T03:58:42.480Z,86602.44
2023-03-25T04:01:32.781Z,86613.72
2023-03-25T04:04:06.333Z,86650.50
2023-03-25T04:07:21.728Z,86673.72
2023-03-25T04:10:07.758Z,86681.97
2023-03-25T04:12:41.036Z,86695.06
2023-03-25T04:15:09.320Z,86704.41
2023-03-25T04:17:36.635Z,86703.66
2023-03-25T04:20:04.662Z,86702.88
2023-03-25T04:22:32.034Z,86714.50
2023-03-25T04:24:59.207Z,86703.28
2023-03-25T04:27:26.813Z,86694.66
2023-03-25T04:29:53.953Z,86707.75
2023-03-25T04:32:21.150Z,86691.28
2023-03-25T04:34:48.502Z,86685.66
2023-03-25T04:37:15.653Z,86687.91
2023-03-25T04:39:42.835Z,86683.03
2023-03-25T04:42:10.506Z,86689.81
2023-03-25T04:44:37.661Z,86690.56
2023-03-25T04:47:08.020Z,86694.69
2023-03-25T04:49:37.587Z,86703.31
2023-03-25T04:52:05.054Z,86704.81
2023-03-25T04:54:32.218Z,86707.84
2023-03-25T04:56:59.392Z,86708.97
2023-03-25T04:59:26.642Z,86713.06
2023-03-25T05:01:54.062Z,86719.09
2023-03-25T05:04:21.284Z,86722.09
2023-03-25T05:06:50.395Z,86721.31
2023-03-25T05:09:21.684Z,86725.06
2023-03-25T05:11:51.635Z,86714.91
2023-03-25T05:14:21.653Z,86728.44
2023-03-25T05:16:48.976Z,86718.69
2023-03-25T05:19:17.396Z,86725.03
2023-03-25T05:21:45.022Z,86726.56
2023-03-25T05:24:13.676Z,86724.69
2023-03-25T05:26:42.734Z,86722.78
2023-03-25T05:29:14.513Z,86712.28
2023-03-25T05:31:46.662Z,86716.81
2023-03-25T05:34:14.922Z,86712.31
2023-03-25T05:36:42.192Z,86722.41
2023-03-25T05:39:09.845Z,86724.28
2023-03-25T05:41:37.048Z,86724.66
2023-03-25T05:44:06.328Z,86726.53
2023-03-25T05:46:33.869Z,86731.06
2023-03-25T05:49:01.388Z,86733.66
2023-03-25T05:51:32.672Z,86742.63
2023-03-25T05:54:00.402Z,86757.25
2023-03-25T05:56:27.719Z,86748.22
2023-03-25T05:58:55.357Z,86764.00
2023-03-25T06:01:32.751Z,86766.59
2023-03-25T06:04:03.145Z,86760.59
2023-03-25T06:06:32.515Z,86763.22
2023-03-25T06:08:59.809Z,86779.69
2023-03-25T06:11:27.062Z,86787.53
2023-03-25T06:13:54.287Z,86788.69
2023-03-25T06:16:24.488Z,86795.34
2023-03-25T06:18:51.995Z,86790.09
2023-03-25T06:21:20.474Z,86796.09
2023-03-25T06:23:47.806Z,86801.69
2023-03-25T06:26:22.178Z,86812.59
2023-03-25T06:28:49.583Z,86803.22
2023-03-25T06:31:21.599Z,86805.09
2023-03-25T06:33:50.857Z,86798.00
2023-03-25T06:36:22.650Z,86791.25
2023-03-25T06:38:51.389Z,86784.53
2023-03-25T06:41:20.785Z,86791.28
2023-03-25T06:43:49.041Z,86793.91
2023-03-25T06:46:16.788Z,86781.56
2023-03-25T06:48:44.279Z,86779.69
2023-03-25T06:51:23.127Z,86786.78
2023-03-25T06:53:50.399Z,86777.06
2023-03-25T06:56:18.588Z,86769.28
2023-03-25T06:58:46.151Z,86768.94
2023-03-25T07:01:13.637Z,86772.75
2023-03-25T07:03:40.866Z,86773.88
2023-03-25T07:06:08.673Z,86775.44
2023-03-25T07:08:37.239Z,86766.41
2023-03-25T07:11:07.722Z,86767.16
2023-03-25T07:13:35.576Z,86769.44
2023-03-25T07:16:03.225Z,86761.94
2023-03-25T07:18:30.955Z,86757.84
2023-03-25T07:20:58.355Z,86764.94
2023-03-25T07:23:26.233Z,86759.34
2023-03-25T07:25:53.961Z,86763.84
2023-03-25T07:28:21.198Z,86766.84
2023-03-25T07:30:48.538Z,86768.72
2023-03-25T07:33:15.796Z,86766.47
2023-03-25T07:35:46.859Z,86768.72
2023-03-25T07:38:14.293Z,86759.34
2023-03-25T07:40:41.616Z,86759.75
2023-03-25T07:43:08.997Z,86765.72
2023-03-25T07:45:56.057Z,86765.38
2023-03-25T07:48:23.272Z,86777.75
2023-03-25T07:50:52.991Z,86771.72
2023-03-25T07:53:21.756Z,86779.63
2023-03-25T07:55:49.146Z,86782.25
2023-03-25T07:58:17.664Z,86782.63
2023-03-25T08:00:45.195Z,86784.53
2023-03-25T08:03:14.223Z,86786.75
2023-03-25T08:05:48.957Z,86784.50
2023-03-25T08:08:16.502Z,86782.25
2023-03-25T08:10:45.315Z,86787.53
2023-03-25T08:13:13.339Z,86798.03
2023-03-25T08:15:40.947Z,86785.25
2023-03-25T08:18:08.521Z,86793.13
2023-03-25T08:20:36.188Z,86794.63
2023-03-25T08:23:03.755Z,86787.13
2023-03-25T08:25:31.694Z,86788.25
2023-03-25T08:27:58.974Z,86792.41
2023-03-25T08:30:26.152Z,86796.91
2023-03-25T08:32:53.354Z,86794.28
2023-03-25T08:35:24.328Z,86798.78
2023-03-25T08:37:51.861Z,86793.53
2023-03-25T08:40:19.221Z,86783.00
2023-03-25T08:42:46.970Z,86780.75
2023-03-25T08:45:14.254Z,86777.34
2023-03-25T08:47:41.410Z,86781.13
2023-03-25T08:50:09.464Z,86774.75
2023-03-25T08:52:36.810Z,86775.09
2023-03-25T08:55:06.168Z,86772.09
2023-03-25T08:57:35.209Z,86782.22
2023-03-25T09:00:04.534Z,86773.59
2023-03-25T09:02:31.827Z,86766.41
2023-03-25T09:04:59.077Z,86762.22
2023-03-25T09:07:26.353Z,86767.50
2023-03-25T09:09:53.569Z,86766.00
2023-03-25T09:12:20.776Z,86769.75
2023-03-25T09:14:48.055Z,86765.22
2023-03-25T09:17:15.352Z,86765.22
2023-03-25T09:19:42.509Z,86758.81
2023-03-25T09:22:09.822Z,86763.66
2023-03-25T09:24:36.996Z,86757.31
2023-03-25T09:27:04.436Z,86762.94
2023-03-25T09:29:31.687Z,86754.25
2023-03-25T09:31:59.704Z,86758.00
2023-03-25T09:34:28.314Z,86762.94
2023-03-25T09:36:56.511Z,86753.50
2023-03-25T09:39:23.980Z,86757.25
2023-03-25T09:42:42.774Z,86747.09
2023-03-25T09:45:34.577Z,86751.97
2023-03-25T09:48:30.038Z,86746.31
2023-03-25T09:51:07.493Z,86753.06
2023-03-25T09:53:56.257Z,86741.34
2023-03-25T09:56:28.565Z,86729.28
2023-03-25T09:59:06.908Z,86730.34
2023-03-25T10:01:58.994Z,86725.84
2023-03-25T10:04:44.286Z,86720.53
2023-03-25T10:07:36.919Z,86721.97
2023-03-25T10:10:42.471Z,86712.84
2023-03-25T10:13:27.519Z,86724.06
2023-03-25T10:16:19.755Z,86727.78
2023-03-25T10:19:45.716Z,86722.06
2023-03-25T10:22:48.119Z,86727.31
2023-03-25T10:25:23.933Z,86729.53
2023-03-25T10:27:52.913Z,86721.22
2023-03-25T10:30:30.245Z,86720.47
2023-03-25T10:33:05.983Z,86714.72
2023-03-25T10:35:46.015Z,86715.47
2023-03-25T10:38:22.470Z,86722.91
2023-03-25T10:40:56.088Z,86713.53
2023-03-25T10:43:42.672Z,86697.16
2023-03-25T10:46:51.607Z,86713.75
2023-03-25T10:49:26.972Z,86701.03
2023-03-25T10:51:54.844Z,86713.84
2023-03-25T10:54:28.524Z,86725.13
2023-03-25T10:57:03.634Z,86720.63
2023-03-25T11:00:03.391Z,86697.91
2023-03-25T11:02:33.535Z,86691.63
2023-03-25T11:05:07.560Z,86689.19
2023-03-25T11:07:42.043Z,86703.38
2023-03-25T11:10:30.957Z,86701.47
2023-03-25T11:12:58.680Z,86700.50
2023-03-25T11:15:38.525Z,86703.16
2023-03-25T11:18:16.146Z,86698.00
2023-03-25T11:21:02.756Z,86705.75
2023-03-25T11:23:49.150Z,86712.44
2023-03-25T11:26:36.338Z,86703.66
2023-03-25T11:29:27.993Z,86712.22
2023-03-25T11:32:32.725Z,86723.03
2023-03-25T11:35:14.490Z,86714.53
2023-03-25T11:37:55.881Z,86700.81
2023-03-25T11:40:24.602Z,86707.63
2023-03-25T11:42:58.936Z,86706.50
2023-03-25T11:45:37.461Z,86692.34
2023-03-25T11:48:17.270Z,86698.50
2023-03-25T11:50:54.223Z,86686.00
2023-03-25T11:53:26.183Z,86685.53
2023-03-25T11:56:05.178Z,86670.34
2023-03-25T11:58:37.021Z,86677.81
2023-03-25T12:01:25.497Z,86671.59
2023-03-25T12:04:05.521Z,86674.63
2023-03-25T12:06:33.440Z,86664.63
2023-03-25T12:09:10.411Z,86655.31
2023-03-25T12:11:58.045Z,86652.72
2023-03-25T12:14:36.263Z,86648.25
2023-03-25T12:17:40.269Z,86642.44
2023-03-25T12:21:11.038Z,86645.81
2023-03-25T12:24:02.638Z,86645.94
2023-03-25T12:27:11.126Z,86651.16
2023-03-25T12:30:27.330Z,86658.19
2023-03-25T12:33:29.503Z,86658.06
2023-03-25T12:36:33.313Z,86660.63
2023-03-25T12:39:29.307Z,86647.63
2023-03-25T12:42:33.912Z,86638.34
2023-03-25T12:45:30.597Z,86644.03
2023-03-25T12:48:19.824Z,86635.88
2023-03-25T12:51:19.506Z,86639.88
2023-03-25T12:54:13.458Z,86647.72
2023-03-25T12:57:00.636Z,86679.59
2023-03-25T12:59:38.801Z,86692.81
2023-03-25T13:02:15.681Z,86696.84
2023-03-25T13:05:06.183Z,86699.34
2023-03-25T13:07:43.074Z,86691.94
2023-03-25T13:10:23.436Z,86727.66
2023-03-25T13:12:56.408Z,86717.28
2023-03-25T13:15:44.066Z,86710.38
2023-03-25T13:18:22.915Z,86714.53
2023-03-25T13:21:13.398Z,86718.06
2023-03-25T13:23:47.607Z,86723.41
2023-03-25T13:26:21.107Z,86713.94
2023-03-25T13:28:50.993Z,86707.81
2023-03-25T13:31:23.381Z,86673.78
2023-03-25T13:34:28.368Z,86672.34
2023-03-25T13:37:10.901Z,86682.41
2023-03-25T13:40:27.913Z,86673.81
2023-03-25T13:43:32.590Z,86678.72
2023-03-25T13:46:19.816Z,86665.66
2023-03-25T13:48:59.460Z,86670.31
2023-03-25T13:51:27.132Z,86669.41
2023-03-25T13:54:08.342Z,86677.41
2023-03-25T13:57:03.328Z,86676.16
2023-03-25T13:59:49.249Z,86672.00
2023-03-25T14:02:34.144Z,86676.44
2023-03-25T14:05:20.874Z,86667.38
2023-03-25T14:08:29.646Z,86677.84
2023-03-25T14:11:32.142Z,86686.00
2023-03-25T14:14:15.813Z,86682.38
2023-03-25T14:16:52.075Z,86691.41
2023-03-25T14:19:42.791Z,86693.84
2023-03-25T14:22:24.337Z,86695.63
2023-03-25T14:24:52.331Z,86695.56
2023-03-25T14:27:31.228Z,86698.50
2023-03-25T14:30:18.634Z,86693.44
2023-03-25T14:32:46.005Z,86682.25
2023-03-25T14:35:32.082Z,86682.28
2023-03-25T14:38:08.694Z,86683.13
2023-03-25T14:41:02.176Z,86672.91
2023-03-25T14:43:37.925Z,86681.75
2023-03-25T14:46:11.173Z,86664.47
2023-03-25T14:48:45.061Z,86653.97
2023-03-25T14:51:27.515Z,86659.19
2023-03-25T14:54:16.573Z,86663.97
2023-03-25T14:57:15.973Z,86657.09
2023-03-25T15:00:02.115Z,86657.56
2023-03-25T15:02:33.710Z,86651.66
2023-03-25T15:05:19.022Z,86651.16
2023-03-25T15:07:57.857Z,86656.50
2023-03-25T15:10:42.959Z,86638.97
2023-03-25T15:13:21.730Z,86635.84
2023-03-25T15:15:48.959Z,86639.09
2023-03-25T15:18:34.909Z,86654.41
2023-03-25T15:21:09.037Z,86652.66
2023-03-25T15:23:46.737Z,86650.13
2023-03-25T15:26:42.317Z,86650.34
2023-03-25T15:29:55.518Z,86649.03
2023-03-25T15:33:13.183Z,86667.81
2023-03-25T15:36:41.947Z,86663.09
2023-03-25T15:39:55.797Z,86662.28
2023-03-25T15:42:53.532Z,86678.69
2023-03-25T15:45:46.806Z,86676.47
2023-03-25T15:49:27.964Z,86684.53
2023-03-25T15:52:11.769Z,86681.88
2023-03-25T15:54:56.871Z,86699.16
2023-03-25T15:57:44.548Z,86699.16
2023-03-25T16:00:27.165Z,86697.13
2023-03-25T16:03:24.795Z,86700.03
2023-03-25T16:06:02.623Z,86708.28
2023-03-25T16:08:40.310Z,86709.50
2023-03-25T16:11:19.619Z,86711.38
2023-03-25T16:14:00.768Z,86704.75
2023-03-25T16:16:30.934Z,86701.50
2023-03-25T16:18:58.128Z,86702.25
2023-03-25T16:21:30.250Z,86705.13
2023-03-25T16:24:06.138Z,86710.03
2023-03-25T16:26:46.490Z,86705.31
2023-03-25T16:29:24.464Z,86709.94
2023-03-25T16:32:02.398Z,86717.59
2023-03-25T16:34:36.321Z,86712.72
2023-03-25T16:37:05.949Z,86725.47
2023-03-25T16:39:39.077Z,86718.63
2023-03-25T16:42:19.203Z,86723.28
2023-03-25T16:44:47.200Z,86722.53
2023-03-25T16:47:16.839Z,86725.59
2023-03-25T16:49:51.048Z,86726.16
2023-03-25T16:52:25.913Z,86725.47
2023-03-25T16:54:52.994Z,86732.66
2023-03-25T16:57:26.247Z,86725.09
2023-03-25T16:59:55.475Z,86727.13
2023-03-25T17:02:38.147Z,86737.09
2023-03-25T17:05:29.149Z,86730.69
2023-03-25T17:08:07.747Z,86726.63
2023-03-25T17:10:55.580Z,86738.66
2023-03-25T17:13:39.360Z,86736.78
2023-03-25T17:16:08.284Z,86734.72
2023-03-25T17:18:37.983Z,86741.88
2023-03-25T17:21:19.992Z,86751.25
2023-03-25T17:23:47.395Z,86751.63
2023-03-25T17:26:19.741Z,86752.06
2023-03-25T17:28:55.806Z,86755.91
2023-03-25T17:31:37.348Z,86761.16
2023-03-25T17:34:18.983Z,86769.47
2023-03-25T17:36:56.113Z,86766.47
2023-03-25T17:39:26.792Z,86773.25
2023-03-25T17:42:04.060Z,86774.78
2023-03-25T17:44:39.731Z,86764.31
2023-03-25T17:47:12.884Z,86767.00
2023-03-25T17:49:40.375Z,86770.03
2023-03-25T17:52:07.846Z,86781.03
2023-03-25T17:54:36.301Z,86773.16
2023-03-25T17:57:23.734Z,86769.81
2023-03-25T17:59:52.097Z,86763.41
2023-03-25T18:02:19.444Z,86767.56
2023-03-25T18:04:46.556Z,86777.41
2023-03-25T18:07:13.838Z,86774.44
2023-03-25T18:09:41.285Z,86769.19
2023-03-25T18:12:08.818Z,86774.09
2023-03-25T18:14:36.254Z,86785.03
2023-03-25T18:17:04.015Z,86784.31
2023-03-25T18:19:32.344Z,86774.94
2023-03-25T18:22:06.874Z,86782.91
2023-03-25T18:24:41.226Z,86788.16
2023-03-25T18:27:11.388Z,86796.44
2023-03-25T18:29:38.972Z,86808.13
2023-03-25T18:32:06.343Z,86806.25
2023-03-25T18:34:33.636Z,86813.78
2023-03-25T18:37:00.852Z,86819.06
2023-03-25T18:39:28.752Z,86825.06
2023-03-25T18:41:55.902Z,86827.34
2023-03-25T18:44:23.052Z,86827.72
2023-03-25T18:46:50.267Z,86830.31
2023-03-25T18:49:19.916Z,86826.56
2023-03-25T18:51:47.709Z,86836.34
2023-03-25T18:54:16.239Z,86837.09
2023-03-25T18:56:44.146Z,86841.97
2023-03-25T18:59:15.950Z,86843.47
2023-03-25T19:01:43.180Z,86839.69
2023-03-25T19:04:10.453Z,86839.69
2023-03-25T19:06:37.714Z,86839.31
2023-03-25T19:09:05.988Z,86846.78
2023-03-25T19:11:33.197Z,86850.53
2023-03-25T19:14:00.603Z,86853.91
2023-03-25T19:16:28.018Z,86852.75
2023-03-25T19:18:55.250Z,86853.47
2023-03-25T19:21:22.393Z,86862.47
2023-03-25T19:23:50.587Z,86858.72
2023-03-25T19:26:17.987Z,86863.19
2023-03-25T19:28:45.339Z,86859.41
2023-03-25T19:31:14.479Z,86870.63
2023-03-25T19:33:41.772Z,86865.31
2023-03-25T19:36:15.674Z,86867.91
2023-03-25T19:38:43.203Z,86866.38
2023-03-25T19:41:15.168Z,86873.13
2023-03-25T19:43:42.553Z,86870.84
2023-03-25T19:46:09.905Z,86869.69
2023-03-25T19:48:37.418Z,86875.28
2023-03-25T19:51:04.974Z,86881.91
2023-03-25T19:53:32.261Z,86884.97
2023-03-25T19:56:05.222Z,86887.53
2023-03-25T19:58:33.749Z,86890.88
2023-03-25T20:01:00.907Z,86887.47
2023-03-25T20:03:28.359Z,86892.66
2023-03-25T20:06:03.668Z,86889.66
2023-03-25T20:08:30.943Z,86890.75
2023-03-25T20:10:58.727Z,86894.09
2023-03-25T20:13:26.743Z,86903.03
2023-03-25T20:15:54.538Z,86900.72
2023-03-25T20:18:22.062Z,86902.53
2023-03-25T20:20:49.603Z,86899.13
2023-03-25T20:23:17.175Z,86900.59
2023-03-25T20:25:44.701Z,86900.22
2023-03-25T20:28:12.212Z,86900.16
2023-03-25T20:30:39.819Z,86903.91
2023-03-25T20:33:07.371Z,86916.16
2023-03-25T20:35:34.836Z,86914.63
2023-03-25T20:38:02.213Z,86910.41
2023-03-25T20:40:41.513Z,86906.97
2023-03-25T20:43:11.496Z,86914.09
2023-03-25T20:45:39.381Z,86907.69
2023-03-25T20:48:07.033Z,86909.09
2023-03-25T20:50:34.623Z,86917.31
2023-03-25T20:53:02.183Z,86917.66
2023-03-25T20:55:29.717Z,86920.59
2023-03-25T20:57:57.274Z,86926.16
2023-03-25T21:00:24.807Z,86924.25
2023-03-25T21:02:52.384Z,86929.84
2023-03-25T21:05:20.278Z,86926.06
2023-03-25T21:07:48.009Z,86933.47
2023-03-25T21:10:15.614Z,86923.72
2023-03-25T21:12:44.655Z,86935.66
2023-03-25T21:15:14.105Z,86934.13
2023-03-25T21:17:41.888Z,86945.34
2023-03-25T21:20:10.476Z,86935.59
2023-03-25T21:22:43.419Z,86936.38
2023-03-25T21:25:13.173Z,86932.97
2023-03-25T21:27:40.671Z,86922.53
2023-03-25T21:30:09.990Z,86923.97
2023-03-25T21:32:39.319Z,86932.16
2023-03-25T21:35:08.175Z,86927.22
2023-03-25T21:37:37.376Z,86930.25
2023-03-25T21:40:06.715Z,86929.84
2023-03-25T21:42:34.192Z,86923.06
2023-03-25T21:45:01.688Z,86925.63
2023-03-25T21:47:29.233Z,86929.28
2023-03-25T21:49:56.822Z,86935.59
2023-03-25T21:52:24.386Z,86928.47
2023-03-25T21:54:52.088Z,86925.47
2023-03-25T21:57:19.862Z,86919.81
2023-03-25T21:59:47.517Z,86927.66
2023-03-25T22:02:15.000Z,86928.78
2023-03-25T22:04:42.549Z,86920.13
2023-03-25T22:07:10.089Z,86913.69
2023-03-25T22:09:37.748Z,86915.16
2023-03-25T22:12:05.775Z,86917.34
2023-03-25T22:14:33.613Z,86908.69
2023-03-25T22:17:01.198Z,86916.16
2023-03-25T22:19:28.808Z,86919.84
2023-03-25T22:21:56.288Z,86918.34
2023-03-25T22:24:23.806Z,86911.56
2023-03-25T22:26:51.493Z,86919.78
2023-03-25T22:29:18.996Z,86910.69
2023-03-25T22:31:46.587Z,86911.50
2023-03-25T22:34:15.883Z,86908.06
2023-03-25T22:36:46.388Z,86910.28
2023-03-25T22:39:14.202Z,86912.31
2023-03-25T22:41:41.694Z,86918.97
2023-03-25T22:44:09.428Z,86920.78
2023-03-25T22:46:37.282Z,86923.28
2023-03-25T22:49:04.873Z,86928.47
2023-03-25T22:51:32.483Z,86924.34
2023-03-25T22:54:00.677Z,86933.22
2023-03-25T22:56:28.165Z,86938.13
2023-03-25T22:58:55.680Z,86932.81
2023-03-25T23:01:25.649Z,86943.16
2023-03-25T23:03:55.147Z,86952.38
2023-03-25T23:06:23.563Z,86945.25
2023-03-25T23:08:51.193Z,86955.28
2023-03-25T23:11:21.204Z,86953.44
2023-03-25T23:13:57.338Z,86956.72
2023-03-25T23:16:27.724Z,86948.38
2023-03-25T23:18:55.482Z,86954.28
2023-03-25T23:21:26.210Z,86950.56
2023-03-25T23:23:56.388Z,86945.31
2023-03-25T23:26:38.411Z,86952.25
2023-03-25T23:29:09.111Z,86953.06
2023-03-25T23:31:38.105Z,86949.63
2023-03-25T23:34:09.128Z,86947.38
2023-03-25T23:36:37.515Z,86945.44
2023-03-25T23:39:10.930Z,86951.84
2023-03-25T23:41:38.743Z,86947.13
2023-03-25T23:44:06.953Z,86945.03
2023-03-25T23:46:35.036Z,86949.91
2023-03-25T23:49:02.650Z,86947.25
2023-03-25T23:51:35.242Z,86944.22
2023-03-25T23:54:04.131Z,86943.38
2023-03-25T23:56:31.557Z,86946.00
2023-03-25T23:59:00.442Z,86945.69
